Time,TemperatureF,DewpointF,PressureIn,WindDirection,WindDirectionDegrees,WindSpeedMPH,WindSpeedGustMPH,Humidity,HourlyPrecipIn,Conditions,Clouds,dailyrainin,SolarRadiationWatts/m^2,SoftwareType,DateUTC
2013-02-04 00:02:00,59.0,28.0,-100.00,SSE,151,11.0,16.0,30,0.00,,,0.00,0.000000,,2013-02-04 06:02:00,
2013-02-04 00:32:00,58.0,26.0,-100.00,SSE,154,12.0,18.0,29,0.00,,,0.00,0.000000,,2013-02-04 06:32:00,
2013-02-04 00:42:00,58.0,26.0,-100.00,SSE,154,12.0,18.0,29,0.00,,,0.00,0.000000,,2013-02-04 06:42:00,
2013-02-04 00:52:00,58.0,26.0,-100.00,SSE,154,12.0,18.0,29,0.00,,,0.00,0.000000,,2013-02-04 06:52:00,
2013-02-04 01:02:00,58.0,26.0,-100.00,SSE,154,12.0,18.0,29,0.00,,,0.00,0.000000,,2013-02-04 07:02:00,
2013-02-04 01:32:00,58.0,28.0,-100.00,SSE,161,11.0,18.0,31,0.00,,,0.00,0.000000,,2013-02-04 07:32:00,
2013-02-04 01:42:00,58.0,28.0,-100.00,SSE,161,11.0,18.0,31,0.00,,,0.00,0.000000,,2013-02-04 07:42:00,
2013-02-04 01:52:00,58.0,28.0,-100.00,SSE,161,11.0,18.0,31,0.00,,,0.00,0.000000,,2013-02-04 07:52:00,
2013-02-04 02:01:00,58.0,28.0,-100.00,SSE,161,11.0,18.0,31,0.00,,,0.00,0.000000,,2013-02-04 08:01:00,
2013-02-04 02:32:00,58.0,31.0,-100.00,South,175,10.0,18.0,36,0.00,,,0.00,0.000000,,2013-02-04 08:32:00,
2013-02-04 02:42:00,58.0,31.0,-100.00,South,175,10.0,18.0,36,0.00,,,0.00,0.000000,,2013-02-04 08:42:00,
2013-02-04 02:52:00,58.0,31.0,-100.00,South,175,10.0,18.0,36,0.00,,,0.00,0.000000,,2013-02-04 08:52:00,
2013-02-04 03:02:00,58.0,31.0,-100.00,South,175,10.0,18.0,36,0.00,,,0.00,0.000000,,2013-02-04 09:02:00,
2013-02-04 03:32:00,58.0,35.0,-100.00,South,174,9.0,15.0,42,0.00,,,0.00,0.000000,,2013-02-04 09:32:00,
2013-02-04 03:42:00,58.0,35.0,-100.00,South,174,9.0,15.0,42,0.00,,,0.00,0.000000,,2013-02-04 09:42:00,
2013-02-04 03:52:00,58.0,35.0,-100.00,South,174,9.0,15.0,42,0.00,,,0.00,0.000000,,2013-02-04 09:52:00,
2013-02-04 04:01:00,58.0,35.0,-100.00,South,174,9.0,15.0,42,0.00,,,0.00,0.000000,,2013-02-04 10:01:00,
2013-02-04 04:32:00,58.0,39.0,-100.00,South,172,10.0,17.0,50,0.00,,,0.00,0.000000,,2013-02-04 10:32:00,
2013-02-04 04:42:00,58.0,39.0,-100.00,South,172,10.0,17.0,50,0.00,,,0.00,0.000000,,2013-02-04 10:42:00,
2013-02-04 04:52:00,58.0,39.0,-100.00,South,172,10.0,17.0,50,0.00,,,0.00,0.000000,,2013-02-04 10:52:00,
2013-02-04 05:02:00,58.0,39.0,-100.00,South,172,10.0,17.0,50,0.00,,,0.00,0.000000,,2013-02-04 11:02:00,
2013-02-04 05:33:00,57.0,40.0,-100.00,SSE,157,10.0,17.0,53,0.00,,,0.00,0.000000,,2013-02-04 11:33:00,
2013-02-04 05:42:00,57.0,40.0,-100.00,SSE,157,10.0,17.0,53,0.00,,,0.00,0.000000,,2013-02-04 11:42:00,
2013-02-04 05:52:00,57.0,40.0,-100.00,SSE,157,10.0,17.0,53,0.00,,,0.00,0.000000,,2013-02-04 11:52:00,
2013-02-04 06:02:00,57.0,40.0,-100.00,SSE,157,10.0,17.0,53,0.00,,,0.00,0.000000,,2013-02-04 12:02:00,
2013-02-04 06:33:00,56.0,41.0,-100.00,SSE,151,12.0,19.0,58,0.00,,,0.00,0.000000,,2013-02-04 12:33:00,
2013-02-04 06:42:00,56.0,41.0,-100.00,SSE,151,12.0,19.0,58,0.00,,,0.00,0.000000,,2013-02-04 12:42:00,
2013-02-04 06:53:00,56.0,41.0,-100.00,SSE,151,12.0,19.0,58,0.00,,,0.00,0.000000,,2013-02-04 12:53:00,
2013-02-04 07:02:00,56.0,41.0,-100.00,SSE,151,12.0,19.0,58,0.00,,,0.00,0.000000,,2013-02-04 13:02:00,
2013-02-04 07:33:00,55.0,42.0,-100.00,South,180,7.0,19.0,61,0.00,,,0.00,0.000000,,2013-02-04 13:33:00,
2013-02-04 07:42:00,55.0,42.0,-100.00,South,180,7.0,19.0,61,0.00,,,0.00,0.000000,,2013-02-04 13:42:00,
2013-02-04 07:52:00,55.0,42.0,-100.00,South,180,7.0,19.0,61,0.00,,,0.00,0.000000,,2013-02-04 13:52:00,
2013-02-04 08:03:00,55.0,42.0,-100.00,South,180,7.0,19.0,61,0.00,,,0.00,0.000000,,2013-02-04 14:03:00,
2013-02-04 08:33:00,56.0,52.0,-100.00,SSE,164,9.0,15.0,87,0.01,,,0.01,5.000000,,2013-02-04 14:33:00,
2013-02-04 08:42:00,56.0,52.0,-100.00,SSE,164,9.0,15.0,87,0.01,,,0.01,5.000000,,2013-02-04 14:42:00,
2013-02-04 08:52:00,56.0,52.0,-100.00,SSE,164,9.0,15.0,87,0.01,,,0.01,5.000000,,2013-02-04 14:52:00,
2013-02-04 09:03:00,56.0,52.0,-100.00,SSE,164,9.0,15.0,87,0.01,,,0.01,5.000000,,2013-02-04 15:03:00,
2013-02-04 09:33:00,55.0,50.0,-100.00,SSE,161,9.0,15.0,84,0.00,,,-99.99,48.000000,,2013-02-04 15:33:00,
2013-02-04 09:43:00,55.0,50.0,-100.00,SSE,161,9.0,15.0,84,0.00,,,-99.99,48.000000,,2013-02-04 15:43:00,
2013-02-04 09:53:00,55.0,50.0,-100.00,SSE,161,9.0,15.0,84,0.00,,,-99.99,48.000000,,2013-02-04 15:53:00,
2013-02-04 10:03:00,55.0,50.0,-100.00,SSE,161,9.0,15.0,84,0.00,,,-99.99,48.000000,,2013-02-04 16:03:00,
2013-02-04 12:33:00,65.0,56.0,-100.00,SSW,198,10.0,19.0,72,-99.99,,,0.01,369.000000,,2013-02-04 18:33:00,
2013-02-04 12:42:00,65.0,56.0,-100.00,SSW,198,10.0,19.0,72,-99.99,,,0.01,369.000000,,2013-02-04 18:42:00,
2013-02-04 12:52:00,65.0,56.0,-100.00,SSW,198,10.0,19.0,72,-99.99,,,0.01,369.000000,,2013-02-04 18:52:00,
2013-02-04 13:02:00,65.0,56.0,-100.00,SSW,198,10.0,19.0,72,-99.99,,,0.01,369.000000,,2013-02-04 19:02:00,
2013-02-04 13:32:00,68.0,56.0,-100.00,South,187,9.0,16.0,66,0.00,,,0.01,513.000000,,2013-02-04 19:32:00,
2013-02-04 13:42:00,68.0,56.0,-100.00,South,187,9.0,16.0,66,0.00,,,0.01,513.000000,,2013-02-04 19:42:00,
2013-02-04 13:52:00,68.0,56.0,-100.00,South,187,9.0,16.0,66,0.00,,,0.01,513.000000,,2013-02-04 19:52:00,
2013-02-04 14:02:00,68.0,56.0,-100.00,South,187,9.0,16.0,66,0.00,,,0.01,513.000000,,2013-02-04 20:02:00,
2013-02-04 15:32:00,73.0,56.0,-100.00,South,186,6.0,13.0,56,-99.99,,,-99.99,446.000000,,2013-02-04 21:32:00,
2013-02-04 15:43:00,73.0,56.0,-100.00,South,186,6.0,13.0,56,-99.99,,,-99.99,446.000000,,2013-02-04 21:43:00,
2013-02-04 15:52:00,73.0,56.0,-100.00,South,186,6.0,13.0,56,-99.99,,,-99.99,446.000000,,2013-02-04 21:52:00,
2013-02-04 16:02:00,73.0,56.0,-100.00,South,186,6.0,13.0,56,-99.99,,,-99.99,446.000000,,2013-02-04 22:02:00,
2013-02-04 16:33:00,72.0,54.0,-100.00,SE,142,6.0,11.0,54,0.00,,,0.01,359.000000,,2013-02-04 22:33:00,
2013-02-04 16:42:00,72.0,54.0,-100.00,SE,142,6.0,11.0,54,0.00,,,0.01,359.000000,,2013-02-04 22:42:00,
2013-02-04 16:52:00,72.0,54.0,-100.00,SE,142,6.0,11.0,54,0.00,,,0.01,359.000000,,2013-02-04 22:52:00,
2013-02-04 17:01:00,72.0,54.0,-100.00,SE,142,6.0,11.0,54,0.00,,,0.01,359.000000,,2013-02-04 23:01:00,
2013-02-04 17:32:00,72.0,55.0,-100.00,ESE,119,4.0,9.0,55,0.00,,,0.01,183.000000,,2013-02-04 23:32:00,
2013-02-04 17:42:00,72.0,55.0,-100.00,ESE,119,4.0,9.0,55,0.00,,,0.01,183.000000,,2013-02-04 23:42:00,
2013-02-04 17:52:00,72.0,55.0,-100.00,ESE,119,4.0,9.0,55,0.00,,,0.01,183.000000,,2013-02-04 23:52:00,
2013-02-04 18:01:00,72.0,55.0,-100.00,ESE,119,4.0,9.0,55,0.00,,,0.01,183.000000,,2013-02-05 00:01:00,
2013-02-04 18:32:00,67.0,54.0,-100.00,ESE,120,4.0,10.0,64,0.00,,,0.01,30.000000,,2013-02-05 00:32:00,
2013-02-04 18:42:00,67.0,54.0,-100.00,ESE,120,4.0,10.0,64,0.00,,,0.01,30.000000,,2013-02-05 00:42:00,
2013-02-04 18:52:00,67.0,54.0,-100.00,ESE,120,4.0,10.0,64,0.00,,,0.01,30.000000,,2013-02-05 00:52:00,
2013-02-04 19:02:00,67.0,54.0,-100.00,ESE,120,4.0,10.0,64,0.00,,,0.01,30.000000,,2013-02-05 01:02:00,
2013-02-04 19:33:00,63.0,54.0,-100.00,ESE,108,4.0,8.0,73,0.00,,,0.01,1.000000,,2013-02-05 01:33:00,
2013-02-04 19:42:00,63.0,54.0,-100.00,ESE,108,4.0,8.0,73,0.00,,,0.01,1.000000,,2013-02-05 01:42:00,
2013-02-04 19:52:00,63.0,54.0,-100.00,ESE,108,4.0,8.0,73,0.00,,,0.01,1.000000,,2013-02-05 01:52:00,
2013-02-04 20:01:00,63.0,54.0,-100.00,ESE,108,4.0,8.0,73,0.00,,,0.01,1.000000,,2013-02-05 02:01:00,
2013-02-04 20:32:00,64.0,56.0,-100.00,SE,124,6.0,12.0,75,0.00,,,0.01,0.000000,,2013-02-05 02:32:00,
2013-02-04 20:42:00,64.0,56.0,-100.00,SE,124,6.0,12.0,75,0.00,,,0.01,0.000000,,2013-02-05 02:42:00,
2013-02-04 20:52:00,64.0,56.0,-100.00,SE,124,6.0,12.0,75,0.00,,,0.01,0.000000,,2013-02-05 02:52:00,
2013-02-04 21:02:00,64.0,56.0,-100.00,SE,124,6.0,12.0,75,0.00,,,0.01,0.000000,,2013-02-05 03:02:00,
2013-02-04 21:32:00,61.0,55.0,-100.00,ESE,107,4.0,10.0,80,0.00,,,0.01,0.000000,,2013-02-05 03:32:00,
2013-02-04 21:42:00,61.0,55.0,-100.00,ESE,107,4.0,10.0,80,0.00,,,0.01,0.000000,,2013-02-05 03:42:00,
2013-02-04 21:52:00,61.0,55.0,-100.00,ESE,107,4.0,10.0,80,0.00,,,0.01,0.000000,,2013-02-05 03:52:00,
2013-02-04 22:01:00,61.0,55.0,-100.00,ESE,107,4.0,10.0,80,0.00,,,0.01,0.000000,,2013-02-05 04:01:00,
2013-02-04 22:32:00,61.0,56.0,-100.00,ESE,123,6.0,11.0,83,0.00,,,0.01,0.000000,,2013-02-05 04:32:00,
2013-02-04 22:42:00,61.0,56.0,-100.00,ESE,123,6.0,11.0,83,0.00,,,0.01,0.000000,,2013-02-05 04:42:00,
2013-02-04 22:52:00,61.0,56.0,-100.00,ESE,123,6.0,11.0,83,0.00,,,0.01,0.000000,,2013-02-05 04:52:00,
2013-02-04 23:02:00,61.0,56.0,-100.00,ESE,123,6.0,11.0,83,0.00,,,0.01,0.000000,,2013-02-05 05:02:00,
2013-02-04 23:32:00,60.0,55.0,-100.00,SE,124,8.0,12.0,85,0.00,,,0.01,0.000000,,2013-02-05 05:32:00,
2013-02-04 23:42:00,60.0,55.0,-100.00,SE,124,8.0,12.0,85,0.00,,,0.01,0.000000,,2013-02-05 05:42:00,
2013-02-04 23:52:00,60.0,55.0,-100.00,SE,124,8.0,12.0,85,0.00,,,0.01,0.000000,,2013-02-05 05:52:00,